Time;durP1;ratioP1;P1;durP2;ratioP2;P2;SDS_P1;SDS_P2;PMS_P1;PMS_P2;Temp;Humidity;BMP_temperature;BMP_pressure;BME280_temperature;BME280_humidity;BME280_pressure;Samples;Min_cycle;Max_cycle;Signal;HPM_P1;HPM_P2
2023/03/08 00:02:20;;;;;;;12.20;8.77;;;6.10;95.30;;;;;;4986119;28;20247;-71
2023/03/08 00:04:45;;;;;;;11.47;8.67;;;6.00;95.10;;;;;;4985841;28;20215;-74
2023/03/08 00:07:11;;;;;;;11.20;8.50;;;6.10;95.30;;;;;;4986030;28;20195;-72
2023/03/08 00:09:37;;;;;;;12.53;9.10;;;6.10;95.50;;;;;;4985212;28;20211;-74
2023/03/08 00:12:03;;;;;;;9.50;7.97;;;6.10;95.60;;;;;;4985697;28;20521;-71
2023/03/08 00:14:28;;;;;;;12.43;8.27;;;6.20;95.60;;;;;;4985324;28;20431;-72
2023/03/08 00:16:54;;;;;;;9.70;8.23;;;6.30;95.30;;;;;;4986554;28;20231;-73
2023/03/08 00:19:19;;;;;;;11.57;9.20;;;6.40;95.50;;;;;;4986331;28;20575;-73
2023/03/08 00:21:45;;;;;;;11.23;8.40;;;6.40;95.50;;;;;;4986137;28;20265;-72
2023/03/08 00:24:11;;;;;;;12.90;8.80;;;6.40;95.60;;;;;;4985469;28;20563;-74
2023/03/08 00:26:37;;;;;;;12.00;9.30;;;6.40;95.50;;;;;;4985499;28;20677;-75
2023/03/08 00:29:02;;;;;;;11.43;9.07;;;6.20;95.40;;;;;;4985082;28;20478;-72
2023/03/08 00:31:28;;;;;;;13.07;9.43;;;6.30;95.60;;;;;;4985614;28;20176;-73
2023/03/08 00:33:54;;;;;;;11.53;9.57;;;6.30;95.80;;;;;;4986424;28;20184;-72
2023/03/08 00:36:20;;;;;;;9.40;7.93;;;6.30;95.50;;;;;;4984123;28;20197;-74
2023/03/08 00:38:47;;;;;;;10.83;9.50;;;6.20;95.80;;;;;;4985468;28;20428;-73
2023/03/08 00:41:14;;;;;;;11.60;8.80;;;6.30;95.80;;;;;;4984935;28;20574;-73
2023/03/08 00:43:41;;;;;;;10.53;8.20;;;6.40;96.00;;;;;;4985185;28;20511;-74
2023/03/08 00:46:06;;;;;;;11.63;9.20;;;6.40;95.80;;;;;;4985240;28;20954;-72
2023/03/08 00:48:32;;;;;;;13.13;9.90;;;6.40;95.60;;;;;;4984847;28;20573;-72
2023/03/08 00:50:58;;;;;;;11.17;9.47;;;6.30;96.00;;;;;;4985247;28;20198;-72
2023/03/08 00:53:24;;;;;;;13.20;10.40;;;6.30;96.20;;;;;;4984984;28;20419;-72
2023/03/08 00:55:54;;;;;;;14.00;9.60;;;6.30;96.20;;;;;;4984928;28;20790;-72
2023/03/08 00:58:20;;;;;;;15.13;10.13;;;6.30;96.00;;;;;;4985116;28;20176;-73
2023/03/08 01:00:47;;;;;;;13.10;10.30;;;6.20;96.10;;;;;;4984696;28;20423;-72
2023/03/08 01:03:13;;;;;;;11.80;9.50;;;6.00;96.20;;;;;;4984725;28;20506;-72
2023/03/08 01:05:46;;;;;;;11.17;9.40;;;6.10;96.50;;;;;;4984728;28;20770;-72
2023/03/08 01:08:13;;;;;;;11.83;9.10;;;6.20;96.60;;;;;;4974626;28;20459;-72
2023/03/08 01:10:39;;;;;;;14.40;10.57;;;6.20;96.50;;;;;;4967097;28;20423;-74
2023/03/08 01:13:07;;;;;;;10.07;8.83;;;6.10;96.40;;;;;;4984670;28;20420;-74
2023/03/08 01:15:36;;;;;;;12.10;9.67;;;6.00;96.70;;;;;;4984370;28;20439;-73
2023/03/08 01:18:03;;;;;;;12.47;10.37;;;6.00;96.80;;;;;;4984787;28;20427;-73
2023/03/08 01:20:29;;;;;;;14.33;10.27;;;6.00;97.00;;;;;;4984758;28;20419;-72
2023/03/08 01:22:55;;;;;;;12.70;10.53;;;5.90;96.90;;;;;;4984530;28;20429;-72
2023/03/08 01:25:20;;;;;;;13.87;10.20;;;5.90;97.00;;;;;;4984705;28;20216;-73
2023/03/08 01:27:46;;;;;;;11.87;9.60;;;5.90;97.20;;;;;;4984929;28;20235;-72
2023/03/08 01:30:12;;;;;;;12.77;11.43;;;5.80;97.40;;;;;;4984402;28;20191;-72
2023/03/08 01:32:37;;;;;;;17.10;11.33;;;5.80;97.50;;;;;;4984278;28;20187;-72
2023/03/08 01:35:04;;;;;;;13.80;11.30;;;5.60;97.40;;;;;;4984530;28;20450;-72
2023/03/08 01:37:31;;;;;;;11.73;9.53;;;5.60;97.90;;;;;;4967045;28;20186;-72
2023/03/08 01:39:57;;;;;;;12.80;9.80;;;5.60;97.80;;;;;;4985092;28;20558;-72
2023/03/08 01:42:23;;;;;;;14.10;9.80;;;5.50;98.10;;;;;;4984115;28;20815;-73
2023/03/08 01:44:51;;;;;;;11.87;9.50;;;5.50;98.30;;;;;;4984002;28;20440;-74
2023/03/08 01:47:20;;;;;;;16.40;11.20;;;5.60;98.30;;;;;;4984191;28;20412;-73
2023/03/08 01:49:46;;;;;;;13.37;11.37;;;5.40;98.40;;;;;;4984182;28;20460;-74
2023/03/08 01:52:17;;;;;;;14.20;10.53;;;5.40;98.60;;;;;;4984204;28;20464;-71
2023/03/08 01:54:48;;;;;;;13.07;10.00;;;5.20;98.80;;;;;;4982192;28;20435;-72
2023/03/08 01:57:19;;;;;;;12.23;10.27;;;5.20;99.00;;;;;;4967317;28;20415;-73
2023/03/08 01:59:47;;;;;;;15.00;9.90;;;5.10;99.20;;;;;;4972482;28;20411;-73
2023/03/08 02:02:12;;;;;;;13.50;10.60;;;5.20;99.30;;;;;;4984418;28;20787;-72
2023/03/08 02:04:39;;;;;;;13.20;10.10;;;5.20;99.20;;;;;;4976656;28;20443;-72
2023/03/08 02:07:05;;;;;;;13.40;10.80;;;5.10;99.40;;;;;;4981398;28;20648;-74
2023/03/08 02:09:30;;;;;;;15.27;11.77;;;5.00;99.50;;;;;;4984476;28;20451;-72
2023/03/08 02:12:00;;;;;;;12.63;11.03;;;5.10;99.50;;;;;;4983981;28;20227;-72
2023/03/08 02:14:26;;;;;;;14.67;10.87;;;5.20;99.50;;;;;;4984296;28;20575;-72
2023/03/08 02:16:53;;;;;;;11.70;10.30;;;5.10;99.40;;;;;;4984882;28;20518;-73
2023/03/08 02:19:31;;;;;;;12.27;10.03;;;5.20;99.60;;;;;;4984757;28;20474;-74
2023/03/08 02:21:56;;;;;;;13.63;10.47;;;5.40;99.50;;;;;;4976797;28;20431;-75
2023/03/08 02:24:24;;;;;;;16.80;9.97;;;5.30;99.30;;;;;;4984631;28;20434;-73
2023/03/08 02:27:00;;;;;;;13.17;10.60;;;5.20;99.30;;;;;;4974422;28;20215;-72
2023/03/08 02:29:25;;;;;;;18.60;10.00;;;5.20;99.40;;;;;;4969206;28;20451;-73
2023/03/08 02:31:51;;;;;;;14.87;10.87;;;5.40;99.50;;;;;;4985031;28;20426;-74
2023/03/08 02:34:16;;;;;;;12.67;9.77;;;5.50;99.30;;;;;;4984564;28;20188;-72
2023/03/08 02:36:42;;;;;;;15.43;11.10;;;5.40;99.20;;;;;;4984178;28;20184;-74
2023/03/08 02:39:07;;;;;;;11.97;9.80;;;5.50;99.30;;;;;;4984512;28;20193;-75
2023/03/08 02:41:33;;;;;;;12.97;9.53;;;5.50;99.20;;;;;;4983999;28;20207;-72
2023/03/08 02:43:58;;;;;;;14.00;9.73;;;5.50;99.20;;;;;;4984037;28;20380;-72
2023/03/08 02:46:24;;;;;;;13.03;10.27;;;5.40;99.20;;;;;;4984131;28;20205;-73
2023/03/08 02:48:51;;;;;;;11.87;8.93;;;5.20;99.60;;;;;;4984178;28;20568;-73
2023/03/08 02:51:17;;;;;;;11.93;9.07;;;5.30;99.50;;;;;;4981642;28;20212;-73
2023/03/08 02:53:43;;;;;;;14.00;10.33;;;5.40;99.40;;;;;;4972682;28;20502;-73
2023/03/08 02:56:08;;;;;;;13.30;9.70;;;5.50;99.30;;;;;;4983760;28;20946;-75
2023/03/08 02:58:34;;;;;;;12.47;9.47;;;5.60;99.10;;;;;;4983924;28;20186;-72
2023/03/08 03:00:59;;;;;;;13.37;9.80;;;5.60;99.00;;;;;;4986361;28;20591;-72
2023/03/08 03:03:25;;;;;;;14.50;11.07;;;5.40;99.00;;;;;;4987605;28;20193;-74
2023/03/08 03:05:50;;;;;;;11.27;9.50;;;5.40;99.10;;;;;;4987007;28;20209;-73
2023/03/08 03:08:16;;;;;;;15.33;10.80;;;5.30;99.40;;;;;;4986997;28;20204;-72
2023/03/08 03:10:41;;;;;;;15.93;11.73;;;5.60;99.30;;;;;;4978593;28;20188;-73
2023/03/08 03:13:07;;;;;;;12.50;10.30;;;5.50;98.80;;;;;;4987422;28;20188;-72
2023/03/08 03:15:36;;;;;;;11.57;9.30;;;5.60;99.00;;;;;;4987383;28;20299;-73
2023/03/08 03:18:01;;;;;;;12.63;10.00;;;5.50;98.90;;;;;;4989257;28;20211;-74
2023/03/08 03:20:27;;;;;;;12.23;9.03;;;5.80;98.90;;;;;;4989016;28;20447;-73
2023/03/08 03:22:52;;;;;;;13.10;9.90;;;5.90;98.60;;;;;;4987880;28;20217;-74
2023/03/08 03:25:18;;;;;;;14.30;9.60;;;6.00;98.50;;;;;;4987032;28;20220;-75
2023/03/08 03:27:44;;;;;;;14.83;10.10;;;6.00;98.70;;;;;;4986990;28;20180;-76
2023/03/08 03:30:10;;;;;;;13.63;9.67;;;5.90;98.30;;;;;;4986745;28;20589;-73
2023/03/08 03:32:36;;;;;;;12.57;9.70;;;5.70;98.60;;;;;;4987067;28;20223;-75
2023/03/08 03:35:02;;;;;;;11.10;8.90;;;5.70;98.70;;;;;;4987051;28;20464;-73
2023/03/08 03:37:27;;;;;;;11.53;9.30;;;5.70;98.80;;;;;;4973605;28;20183;-72
2023/03/08 03:39:53;;;;;;;15.53;10.77;;;5.70;98.70;;;;;;4986953;28;20425;-74
2023/03/08 03:42:18;;;;;;;12.40;9.63;;;5.50;98.90;;;;;;4986194;28;20181;-73
2023/03/08 03:44:44;;;;;;;11.97;9.37;;;5.50;99.10;;;;;;4986243;28;20232;-74
2023/03/08 03:47:10;;;;;;;13.33;9.30;;;5.50;99.10;;;;;;4986261;28;20670;-72
2023/03/08 03:49:35;;;;;;;11.83;9.07;;;5.60;99.00;;;;;;4986015;28;20709;-74
2023/03/08 03:52:01;;;;;;;12.73;9.50;;;5.50;98.80;;;;;;4985713;28;20177;-74
2023/03/08 03:54:27;;;;;;;14.10;9.57;;;5.40;98.90;;;;;;4986132;28;20207;-74
2023/03/08 03:56:56;;;;;;;13.60;10.10;;;5.40;99.30;;;;;;4985987;28;20905;-73
2023/03/08 03:59:22;;;;;;;13.23;8.87;;;5.40;99.10;;;;;;4985949;28;20191;-73
2023/03/08 04:01:48;;;;;;;11.87;9.43;;;5.50;99.10;;;;;;4975471;28;20411;-72
2023/03/08 04:04:13;;;;;;;9.93;8.80;;;5.50;99.00;;;;;;4970287;28;20419;-71
2023/03/08 04:06:39;;;;;;;10.83;9.00;;;5.60;99.10;;;;;;4985894;28;20203;-76
2023/03/08 04:09:09;;;;;;;13.97;10.50;;;5.70;99.00;;;;;;4986395;28;20288;-73
2023/03/08 04:11:37;;;;;;;13.80;10.27;;;5.80;98.90;;;;;;4967880;28;20243;-73
2023/03/08 04:14:03;;;;;;;14.37;9.87;;;5.80;98.70;;;;;;4986396;28;20408;-73
2023/03/08 04:16:31;;;;;;;11.80;9.33;;;5.80;98.80;;;;;;4986085;28;20513;-74
2023/03/08 04:18:59;;;;;;;13.53;9.03;;;5.80;98.90;;;;;;4986055;28;20427;-74
2023/03/08 04:21:25;;;;;;;13.80;10.10;;;5.80;98.70;;;;;;4985981;28;20416;-72
2023/03/08 04:23:51;;;;;;;10.93;9.10;;;5.80;98.80;;;;;;4985541;28;20506;-72
2023/03/08 04:26:17;;;;;;;13.50;9.60;;;5.70;98.60;;;;;;4985525;28;20539;-75
2023/03/08 04:28:43;;;;;;;14.80;9.13;;;5.70;98.90;;;;;;4985344;28;20199;-72
2023/03/08 04:31:13;;;;;;;9.37;8.30;;;5.80;98.80;;;;;;4985423;28;20173;-73
2023/03/08 04:33:38;;;;;;;15.03;9.90;;;5.90;98.90;;;;;;4985535;28;20407;-72
2023/03/08 04:36:04;;;;;;;12.00;9.30;;;5.90;98.70;;;;;;4984275;28;20432;-72
2023/03/08 04:38:32;;;;;;;18.10;10.67;;;5.90;98.80;;;;;;4985547;28;20176;-71
2023/03/08 04:41:00;;;;;;;15.30;10.60;;;5.70;98.80;;;;;;4985301;28;20648;-71
2023/03/08 04:43:27;;;;;;;13.17;9.43;;;5.70;98.80;;;;;;4985150;28;20415;-72
2023/03/08 04:45:53;;;;;;;11.07;9.30;;;5.80;98.80;;;;;;4984711;28;20862;-73
2023/03/08 04:48:19;;;;;;;13.93;9.67;;;5.80;99.10;;;;;;4985336;28;20451;-73
2023/03/08 04:50:51;;;;;;;11.57;9.60;;;5.70;98.90;;;;;;4985065;28;20203;-71
2023/03/08 04:53:16;;;;;;;15.43;10.23;;;5.70;99.10;;;;;;4985138;28;20784;-72
2023/03/08 04:55:42;;;;;;;13.93;9.80;;;5.80;99.00;;;;;;4985009;28;20465;-74
2023/03/08 04:58:07;;;;;;;10.30;8.97;;;5.90;99.00;;;;;;4984961;28;20279;-72
2023/03/08 05:00:33;;;;;;;13.37;9.63;;;5.90;98.80;;;;;;4984905;28;20225;-72
2023/03/08 05:02:58;;;;;;;13.20;10.43;;;5.90;99.00;;;;;;4971582;28;20202;-72
2023/03/08 05:05:24;;;;;;;14.03;10.23;;;5.90;98.90;;;;;;4985256;28;20205;-72
2023/03/08 05:07:49;;;;;;;14.03;9.47;;;6.00;99.00;;;;;;4985292;28;20657;-72
2023/03/08 05:10:15;;;;;;;14.20;10.57;;;5.90;99.00;;;;;;4984671;28;20259;-75
2023/03/08 05:12:40;;;;;;;16.93;11.53;;;5.60;99.20;;;;;;4984815;28;20676;-72
2023/03/08 05:15:06;;;;;;;14.63;9.43;;;5.70;99.60;;;;;;4984319;28;20243;-73
2023/03/08 05:17:32;;;;;;;15.80;10.70;;;5.70;99.40;;;;;;4984820;28;20187;-72
2023/03/08 05:19:57;;;;;;;12.30;10.43;;;5.80;99.60;;;;;;4966968;28;20411;-72
2023/03/08 05:22:23;;;;;;;12.27;9.30;;;5.90;99.50;;;;;;4984767;28;20176;-73
2023/03/08 05:24:49;;;;;;;16.57;11.60;;;5.80;99.30;;;;;;4984486;28;20582;-72
2023/03/08 05:27:15;;;;;;;13.60;10.90;;;5.90;99.60;;;;;;4984984;28;20176;-73
2023/03/08 05:29:41;;;;;;;12.67;10.53;;;5.90;99.50;;;;;;4971514;28;20910;-73
2023/03/08 05:32:10;;;;;;;14.67;10.70;;;5.80;99.70;;;;;;4984532;28;20181;-75
2023/03/08 05:34:36;;;;;;;14.93;11.20;;;5.80;99.50;;;;;;4977569;28;20223;-75
2023/03/08 05:37:02;;;;;;;14.47;11.80;;;5.90;99.60;;;;;;4984428;28;20414;-73
2023/03/08 05:39:29;;;;;;;16.30;11.97;;;5.80;99.50;;;;;;4984576;28;20185;-75
2023/03/08 05:41:54;;;;;;;11.90;10.00;;;5.90;99.50;;;;;;4984661;28;20226;-73
2023/03/08 05:44:20;;;;;;;12.70;10.40;;;5.80;99.30;;;;;;4984723;28;20423;-73
2023/03/08 05:46:49;;;;;;;13.60;10.17;;;5.80;99.50;;;;;;4984563;28;20589;-73
2023/03/08 05:49:14;;;;;;;12.50;10.83;;;5.90;99.50;;;;;;4985114;28;20206;-73
2023/03/08 05:51:40;;;;;;;13.83;11.07;;;6.20;99.40;;;;;;4984615;28;20423;-73
2023/03/08 05:54:05;;;;;;;12.83;10.73;;;6.30;99.00;;;;;;4984696;28;20234;-71
2023/03/08 05:56:31;;;;;;;13.87;10.37;;;6.30;98.90;;;;;;4969905;28;20216;-73
2023/03/08 05:58:56;;;;;;;14.10;11.30;;;6.20;99.10;;;;;;4984894;28;20220;-75
2023/03/08 06:01:24;;;;;;;12.87;10.53;;;6.00;99.20;;;;;;4983982;28;20177;-72
2023/03/08 06:03:53;;;;;;;14.80;12.10;;;6.00;99.40;;;;;;4980920;28;20188;-75
2023/03/08 06:06:20;;;;;;;14.03;12.17;;;6.20;99.80;;;;;;4984528;28;20448;-73
2023/03/08 06:08:46;;;;;;;16.70;12.30;;;6.20;99.50;;;;;;4985249;28;20490;-72
2023/03/08 06:11:12;;;;;;;18.20;14.07;;;6.20;99.60;;;;;;4984797;28;20506;-74
2023/03/08 06:13:38;;;;;;;18.60;12.30;;;6.00;99.70;;;;;;4984713;28;20554;-72
2023/03/08 06:16:04;;;;;;;16.23;12.97;;;6.20;99.80;;;;;;4977689;28;20229;-72
2023/03/08 06:18:30;;;;;;;18.77;15.10;;;6.30;99.80;;;;;;4985994;28;20180;-73
2023/03/08 06:20:59;;;;;;;14.97;12.70;;;6.30;99.90;;;;;;4985490;28;20770;-73
2023/03/08 06:23:27;;;;;;;14.70;12.07;;;6.30;99.90;;;;;;4984017;28;20185;-73
2023/03/08 06:25:52;;;;;;;16.10;12.77;;;6.30;99.90;;;;;;4983981;28;20633;-73
2023/03/08 06:28:18;;;;;;;15.53;12.77;;;6.40;99.90;;;;;;4984328;28;20560;-72
2023/03/08 06:30:45;;;;;;;15.20;12.97;;;6.40;99.90;;;;;;4983962;28;20199;-73
2023/03/08 06:33:10;;;;;;;19.67;14.13;;;6.30;99.90;;;;;;4984150;28;20416;-72
2023/03/08 06:35:36;;;;;;;17.87;13.03;;;6.30;99.90;;;;;;4971621;28;20451;-71
2023/03/08 06:38:01;;;;;;;15.70;12.57;;;6.40;99.90;;;;;;4988065;28;20241;-72
2023/03/08 06:40:27;;;;;;;15.43;12.57;;;6.50;99.90;;;;;;4984368;28;20185;-74
2023/03/08 06:42:52;;;;;;;16.50;13.37;;;6.50;99.90;;;;;;4970129;28;20246;-74
2023/03/08 06:45:18;;;;;;;19.57;14.17;;;6.60;99.90;;;;;;4987243;28;20355;-73
2023/03/08 06:47:43;;;;;;;14.90;13.07;;;6.70;99.90;;;;;;4978588;28;20652;-72
2023/03/08 06:50:10;;;;;;;18.47;13.40;;;6.70;99.90;;;;;;4991744;28;20640;-73
2023/03/08 06:52:36;;;;;;;17.50;14.77;;;6.60;99.90;;;;;;4994078;28;20647;-72
2023/03/08 06:55:05;;;;;;;21.17;13.50;;;6.70;99.90;;;;;;4976746;28;20510;-72
2023/03/08 06:57:31;;;;;;;26.77;22.57;;;6.70;99.80;;;;;;4989800;23;20506;-71
2023/03/08 06:59:56;;;;;;;17.83;12.93;;;6.90;99.90;;;;;;4987030;28;20408;-70
2023/03/08 07:02:22;;;;;;;18.50;14.77;;;7.10;99.90;;;;;;4988035;28;20180;-71
2023/03/08 07:04:47;;;;;;;17.30;12.70;;;7.10;99.30;;;;;;4980820;28;20214;-73
2023/03/08 07:07:13;;;;;;;17.73;13.50;;;7.20;99.50;;;;;;4978628;28;20204;-71
2023/03/08 07:09:39;;;;;;;16.17;11.70;;;7.20;99.40;;;;;;4986402;28;20462;-70
2023/03/08 07:12:04;;;;;;;18.40;13.03;;;7.20;99.00;;;;;;4986758;28;20179;-71
2023/03/08 07:14:30;;;;;;;14.97;11.30;;;7.20;99.30;;;;;;4986853;28;20256;-70
2023/03/08 07:16:56;;;;;;;17.87;13.13;;;7.40;99.30;;;;;;4986691;28;20331;-71
2023/03/08 07:19:21;;;;;;;15.60;12.57;;;7.40;99.20;;;;;;4977320;28;20186;-70
2023/03/08 07:21:48;;;;;;;15.17;12.10;;;7.40;99.10;;;;;;4986887;28;20228;-70
2023/03/08 07:24:13;;;;;;;17.70;12.50;;;7.40;99.00;;;;;;4986529;28;20511;-73
2023/03/08 07:26:39;;;;;;;16.13;12.00;;;7.50;99.00;;;;;;4986120;28;20206;-74
2023/03/08 07:29:04;;;;;;;17.10;11.77;;;7.50;98.70;;;;;;4986397;28;20265;-71
2023/03/08 07:31:31;;;;;;;14.93;12.60;;;7.60;98.80;;;;;;4986520;28;20222;-70
2023/03/08 07:33:57;;;;;;;15.10;11.70;;;7.60;98.80;;;;;;4975652;28;20648;-70
2023/03/08 07:36:22;;;;;;;15.63;12.23;;;7.60;98.70;;;;;;4986212;28;20615;-70
2023/03/08 07:38:48;;;;;;;16.20;12.30;;;7.70;98.90;;;;;;4986500;28;20623;-71
2023/03/08 07:41:13;;;;;;;19.20;13.30;;;7.80;99.00;;;;;;4986496;28;20187;-69
2023/03/08 07:43:39;;;;;;;17.13;12.63;;;7.80;98.80;;;;;;4987375;28;20201;-72
2023/03/08 07:46:05;;;;;;;16.90;11.60;;;7.90;98.70;;;;;;4987993;28;20174;-72
2023/03/08 07:48:31;;;;;;;16.50;11.97;;;7.90;98.80;;;;;;4987727;28;20202;-73
2023/03/08 07:51:05;;;;;;;16.50;13.52;;;8.00;98.80;;;;;;4985856;28;20412;-72
2023/03/08 07:53:31;;;;;;;15.03;12.47;;;8.20;98.80;;;;;;4986253;28;20264;-73
2023/03/08 07:55:58;;;;;;;16.30;12.60;;;8.10;98.20;;;;;;4990201;28;20415;-72
2023/03/08 07:58:23;;;;;;;19.40;14.40;;;8.10;98.30;;;;;;4990418;28;20480;-72
2023/03/08 08:00:49;;;;;;;14.43;12.37;;;8.10;98.80;;;;;;4989290;28;20811;-74
2023/03/08 08:03:14;;;;;;;15.30;12.40;;;8.00;98.90;;;;;;4989601;28;20183;-70
2023/03/08 08:05:40;;;;;;;19.77;12.50;;;7.80;99.30;;;;;;4986918;28;20237;-73
2023/03/08 08:08:05;;;;;;;16.50;12.27;;;7.60;99.90;;;;;;4970914;28;20436;-71
2023/03/08 08:10:31;;;;;;;15.27;11.57;;;7.80;99.90;;;;;;4985029;28;21472;-71
2023/03/08 08:12:57;;;;;;;14.73;11.73;;;7.90;99.90;;;;;;4986742;28;20634;-76
2023/03/08 08:15:24;;;;;;;15.40;12.83;;;8.00;99.90;;;;;;4985558;28;20188;-75
2023/03/08 08:17:50;;;;;;;16.70;11.60;;;8.10;99.90;;;;;;4986208;28;20270;-71
2023/03/08 08:20:16;;;;;;;15.47;11.60;;;8.10;99.90;;;;;;4985393;28;20419;-72
2023/03/08 08:22:42;;;;;;;12.63;10.37;;;8.30;99.90;;;;;;4985068;28;21637;-72
2023/03/08 08:25:07;;;;;;;15.57;11.17;;;8.30;99.90;;;;;;4984781;28;20182;-74
2023/03/08 08:27:34;;;;;;;13.93;11.10;;;8.30;99.90;;;;;;4984706;28;20217;-73
2023/03/08 08:29:59;;;;;;;14.23;11.10;;;8.30;99.90;;;;;;4984308;28;20499;-73
2023/03/08 08:32:25;;;;;;;14.20;11.30;;;8.30;99.90;;;;;;4984446;28;20751;-73
2023/03/08 08:34:51;;;;;;;15.03;11.27;;;8.30;99.90;;;;;;4977991;28;20195;-73
2023/03/08 08:37:16;;;;;;;14.53;10.67;;;8.30;99.90;;;;;;4984370;28;20258;-74
2023/03/08 08:39:42;;;;;;;17.03;11.00;;;8.40;99.90;;;;;;4985186;28;20202;-72
2023/03/08 08:42:07;;;;;;;12.63;11.00;;;8.40;99.90;;;;;;4984060;28;20783;-71
2023/03/08 08:44:33;;;;;;;14.73;11.07;;;8.50;99.90;;;;;;4984811;28;20194;-72
2023/03/08 08:46:58;;;;;;;13.10;11.27;;;8.60;99.90;;;;;;4983943;28;20211;-72
2023/03/08 08:49:24;;;;;;;13.10;10.33;;;8.70;99.90;;;;;;4984434;28;20314;-75
2023/03/08 08:51:52;;;;;;;11.90;10.50;;;8.70;99.90;;;;;;4984662;28;20257;-70
2023/03/08 08:54:18;;;;;;;12.30;9.60;;;8.60;99.90;;;;;;4985225;28;20187;-71
2023/03/08 08:56:43;;;;;;;14.37;11.57;;;8.50;99.90;;;;;;4984867;28;20516;-77
2023/03/08 08:59:12;;;;;;;13.47;10.83;;;8.30;99.90;;;;;;4983994;28;20441;-77
2023/03/08 09:01:45;;;;;;;15.57;12.13;;;8.30;99.90;;;;;;4984331;28;20246;-76
2023/03/08 09:04:12;;;;;;;15.20;12.13;;;8.30;99.90;;;;;;4984349;28;20984;-72
2023/03/08 09:06:39;;;;;;;15.90;13.13;;;8.30;99.90;;;;;;4984547;28;20448;-71
2023/03/08 09:09:05;;;;;;;18.20;12.43;;;8.30;99.90;;;;;;4984419;28;20461;-71
2023/03/08 09:11:31;;;;;;;15.43;12.53;;;8.20;99.90;;;;;;4985795;28;20419;-69
2023/03/08 09:13:57;;;;;;;16.60;13.20;;;8.10;99.90;;;;;;4984106;28;20416;-71
2023/03/08 09:16:29;;;;;;;14.90;12.57;;;8.20;99.90;;;;;;4984868;28;20434;-70
2023/03/08 09:18:55;;;;;;;15.10;12.80;;;8.30;99.90;;;;;;4984094;28;20453;-75
2023/03/08 09:21:22;;;;;;;13.70;12.30;;;8.40;99.90;;;;;;4983975;28;20430;-71
2023/03/08 09:23:47;;;;;;;15.00;12.67;;;8.30;99.90;;;;;;4984228;28;20413;-72
2023/03/08 09:26:13;;;;;;;13.43;12.00;;;8.30;99.90;;;;;;4984539;28;20917;-76
2023/03/08 09:28:38;;;;;;;16.10;13.90;;;8.30;99.90;;;;;;4984297;28;20211;-77
2023/03/08 09:31:10;;;;;;;19.53;14.17;;;8.50;99.90;;;;;;4984801;28;20186;-73
2023/03/08 09:33:37;;;;;;;15.10;13.50;;;8.30;99.90;;;;;;4984216;28;20196;-74
2023/03/08 09:36:03;;;;;;;15.90;12.90;;;8.30;99.90;;;;;;4983861;28;20427;-73
2023/03/08 09:38:29;;;;;;;16.83;13.47;;;8.40;99.90;;;;;;4984530;28;21033;-73
2023/03/08 09:41:22;;;;;;;15.90;13.00;;;8.50;99.90;;;;;;4984325;28;20210;-75
2023/03/08 09:44:09;;;;;;;16.50;12.90;;;8.60;99.90;;;;;;4986379;28;20240;-72
2023/03/08 09:46:45;;;;;;;22.73;14.97;;;8.50;99.90;;;;;;4984073;28;20438;-72
2023/03/08 09:49:17;;;;;;;17.03;13.83;;;8.60;99.90;;;;;;4984513;28;20843;-73
2023/03/08 09:51:46;;;;;;;16.70;14.00;;;8.60;99.90;;;;;;4983857;28;20431;-72
2023/03/08 09:54:17;;;;;;;16.03;13.40;;;8.80;99.90;;;;;;4984035;28;20431;-73
2023/03/08 09:56:49;;;;;;;18.10;14.40;;;8.90;99.90;;;;;;4984080;28;20466;-72
2023/03/08 09:59:15;;;;;;;20.63;14.27;;;8.90;99.90;;;;;;4983892;28;20442;-73
2023/03/08 10:01:58;;;;;;;16.10;13.50;;;8.80;99.90;;;;;;4983956;28;20915;-73
2023/03/08 10:04:45;;;;;;;15.43;12.77;;;8.80;99.90;;;;;;4984414;28;20202;-71
2023/03/08 10:07:26;;;;;;;19.47;14.23;;;8.90;99.90;;;;;;4983833;28;20465;-71
2023/03/08 10:10:00;;;;;;;15.03;12.80;;;9.30;99.90;;;;;;4986493;28;20812;-71
2023/03/08 10:12:36;;;;;;;16.83;13.63;;;9.50;99.90;;;;;;4989396;28;21363;-74
2023/03/08 10:15:18;;;;;;;15.33;12.70;;;9.50;99.90;;;;;;4989187;28;21310;-75
2023/03/08 10:17:49;;;;;;;12.00;10.60;;;9.40;99.90;;;;;;4989213;28;20558;-72
2023/03/08 10:20:28;;;;;;;13.30;11.23;;;9.30;99.90;;;;;;4992405;28;20414;-72
2023/03/08 10:23:00;;;;;;;10.40;9.30;;;9.50;99.90;;;;;;4990380;28;20408;-70
2023/03/08 10:25:32;;;;;;;10.70;8.67;;;9.70;99.90;;;;;;4990500;28;20419;-71
2023/03/08 10:28:00;;;;;;;9.10;7.40;;;9.90;99.90;;;;;;4987213;28;20473;-73
2023/03/08 10:30:47;;;;;;;12.57;7.37;;;9.90;99.90;;;;;;4980623;28;20741;-68
2023/03/08 10:33:19;;;;;;;7.37;6.60;;;10.20;99.90;;;;;;4986645;28;20407;-73
2023/03/08 10:35:58;;;;;;;6.70;5.67;;;10.00;99.90;;;;;;4986921;28;20602;-72
2023/03/08 10:38:28;;;;;;;8.07;6.90;;;10.00;99.90;;;;;;4986864;28;20478;-70
2023/03/08 10:41:13;;;;;;;9.30;6.40;;;10.10;99.90;;;;;;4986722;28;20712;-71
2023/03/08 10:43:45;;;;;;;8.63;5.90;;;10.30;99.90;;;;;;4986773;28;20414;-68
2023/03/08 10:46:17;;;;;;;6.70;6.00;;;10.60;99.90;;;;;;4986438;28;20424;-72
2023/03/08 10:48:43;;;;;;;5.77;4.70;;;10.60;99.90;;;;;;4986594;28;20475;-70
2023/03/08 10:51:28;;;;;;;7.13;5.07;;;10.80;99.90;;;;;;4986728;28;20419;-69
2023/03/08 10:54:03;;;;;;;5.03;4.53;;;10.90;99.90;;;;;;4986642;28;20415;-68
2023/03/08 10:56:43;;;;;;;5.43;4.73;;;11.20;99.90;;;;;;4986599;28;20459;-69
2023/03/08 10:59:26;;;;;;;5.60;4.50;;;11.70;99.90;;;;;;4986967;28;21065;-68
2023/03/08 11:01:55;;;;;;;7.00;4.13;;;11.90;99.90;;;;;;4986503;28;20410;-71
2023/03/08 11:04:26;;;;;;;3.87;3.57;;;12.10;99.90;;;;;;4986232;28;20427;-69
2023/03/08 11:06:52;;;;;;;5.03;3.23;;;12.20;99.90;;;;;;4986190;28;20439;-70
2023/03/08 11:09:27;;;;;;;3.80;3.40;;;12.10;99.90;;;;;;4986416;28;20455;-71
2023/03/08 11:11:54;;;;;;;4.37;3.27;;;12.00;99.90;;;;;;4986385;28;20227;-71
2023/03/08 11:14:20;;;;;;;3.57;3.27;;;12.20;99.90;;;;;;4986245;28;20756;-70
2023/03/08 11:17:11;;;;;;;3.93;3.10;;;12.40;99.90;;;;;;4986254;28;20458;-71
2023/03/08 11:19:49;;;;;;;3.13;2.57;;;12.70;99.90;;;;;;4986795;28;20419;-72
2023/03/08 11:22:38;;;;;;;1.70;1.60;;;12.70;99.90;;;;;;4985881;28;20435;-70
2023/03/08 11:25:13;;;;;;;2.13;1.47;;;12.60;99.90;;;;;;4986514;28;20416;-70
2023/03/08 11:27:53;;;;;;;1.93;1.47;;;12.40;99.90;;;;;;4986021;28;20441;-71
2023/03/08 11:30:31;;;;;;;8.93;1.90;;;12.20;99.90;;;;;;4986086;28;20793;-71
2023/03/08 11:33:11;;;;;;;5.80;1.57;;;12.30;99.90;;;;;;4986004;28;20430;-72
2023/03/08 11:36:15;;;;;;;4.20;1.60;;;12.30;99.90;;;;;;4986492;28;20407;-70
2023/03/08 11:38:42;;;;;;;1.83;1.53;;;12.20;99.90;;;;;;4985725;28;20509;-70
2023/03/08 11:41:28;;;;;;;3.57;1.70;;;12.30;99.90;;;;;;4986111;28;20435;-70
2023/03/08 11:44:25;;;;;;;3.23;1.87;;;12.40;99.90;;;;;;4985403;28;20416;-69
2023/03/08 11:47:07;;;;;;;1.47;1.17;;;12.40;99.90;;;;;;4967660;28;20445;-69
2023/03/08 11:50:07;;;;;;;2.80;1.43;;;12.40;99.90;;;;;;4985207;28;20949;-70
2023/03/08 11:52:50;;;;;;;1.60;1.20;;;12.60;99.90;;;;;;4955336;28;20446;-69
2023/03/08 11:55:27;;;;;;;1.77;1.27;;;12.80;99.90;;;;;;4985274;28;20936;-70
2023/03/08 11:58:11;;;;;;;4.93;1.57;;;12.80;99.90;;;;;;4985001;28;21174;-69
2023/03/08 12:00:40;;;;;;;1.20;1.03;;;12.70;99.90;;;;;;4985151;28;20883;-69
2023/03/08 12:03:16;;;;;;;1.30;1.20;;;12.60;99.90;;;;;;4985096;28;21281;-71
2023/03/08 12:05:48;;;;;;;1.50;1.30;;;12.50;99.90;;;;;;4985307;28;20645;-71
2023/03/08 12:08:32;;;;;;;3.00;1.70;;;12.60;99.90;;;;;;4985293;28;21020;-70
2023/03/08 12:11:10;;;;;;;4.30;2.77;;;12.60;99.90;;;;;;4984332;28;20468;-70
2023/03/08 12:13:40;;;;;;;1.83;1.47;;;12.80;99.90;;;;;;4984918;28;20499;-70
2023/03/08 12:16:24;;;;;;;2.17;1.40;;;12.90;99.90;;;;;;4984741;28;20899;-71
2023/03/08 12:19:03;;;;;;;6.63;1.40;;;13.00;99.90;;;;;;4985338;28;20560;-71
2023/03/08 12:21:40;;;;;;;2.40;1.47;;;13.00;99.90;;;;;;4985440;28;20869;-70
2023/03/08 12:24:32;;;;;;;2.90;1.40;;;13.00;99.90;;;;;;4985223;28;20419;-70
2023/03/08 12:27:12;;;;;;;2.00;1.33;;;13.10;99.90;;;;;;4984644;28;20440;-69
2023/03/08 12:29:55;;;;;;;1.87;1.70;;;13.10;99.90;;;;;;4984561;28;21622;-70
2023/03/08 12:32:21;;;;;;;2.40;1.60;;;13.00;99.90;;;;;;4983856;28;20411;-71
2023/03/08 12:34:58;;;;;;;3.80;1.93;;;13.10;99.90;;;;;;4984720;28;20452;-69
2023/03/08 12:37:28;;;;;;;1.70;1.27;;;13.10;99.90;;;;;;4984918;28;20446;-69
2023/03/08 12:39:59;;;;;;;2.33;1.37;;;13.00;99.90;;;;;;4984858;28;20438;-70
2023/03/08 12:42:37;;;;;;;4.87;1.90;;;13.10;99.90;;;;;;4985387;28;20427;-68
2023/03/08 12:45:23;;;;;;;7.87;1.87;;;13.00;99.90;;;;;;4984964;28;20960;-69
2023/03/08 12:48:04;;;;;;;1.37;1.23;;;13.20;99.90;;;;;;4984428;28;20442;-70
2023/03/08 12:50:33;;;;;;;2.60;1.50;;;13.30;99.90;;;;;;4984610;28;20433;-70